Time;durP1;ratioP1;P1;durP2;ratioP2;P2;SDS_P1;SDS_P2;PMS_P1;PMS_P2;Temp;Humidity;BMP_temperature;BMP_pressure;BME280_temperature;BME280_humidity;BME280_pressure;Samples;Min_cycle;Max_cycle;Signal;HPM_P1;HPM_P2
2023/04/08 00:01:05;;;;;;;13.65;10.13;;;9.00;99.90;;;;;;5034835;28;20117;-75
2023/04/08 00:03:31;;;;;;;12.93;8.55;;;9.00;99.90;;;;;;5038244;28;20033;-77
2023/04/08 00:05:57;;;;;;;15.27;9.25;;;9.00;99.90;;;;;;5044804;28;20031;-77
2023/04/08 00:08:22;;;;;;;14.20;9.35;;;8.90;99.90;;;;;;5042386;28;20045;-76
2023/04/08 00:10:48;;;;;;;12.77;9.18;;;8.90;99.90;;;;;;5042777;28;20391;-78
2023/04/08 00:13:14;;;;;;;12.27;8.93;;;8.90;99.90;;;;;;5042506;28;20021;-78
2023/04/08 00:15:40;;;;;;;12.65;8.82;;;8.80;99.80;;;;;;5044500;28;20025;-76
2023/04/08 00:18:07;;;;;;;11.20;7.93;;;8.80;99.80;;;;;;5039866;28;20060;-76
2023/04/08 00:20:32;;;;;;;11.20;8.35;;;8.80;99.80;;;;;;5039509;28;20029;-76
2023/04/08 00:22:58;;;;;;;11.02;7.80;;;8.80;99.70;;;;;;5039956;28;20021;-76
2023/04/08 00:25:24;;;;;;;10.68;7.60;;;8.70;99.70;;;;;;5037216;28;20040;-76
2023/04/08 00:27:49;;;;;;;11.93;8.02;;;8.70;99.60;;;;;;5031245;28;20037;-75
2023/04/08 00:30:15;;;;;;;12.10;9.13;;;8.70;99.60;;;;;;5028594;28;20099;-77
2023/04/08 00:32:41;;;;;;;12.82;8.63;;;8.70;99.60;;;;;;5036412;28;20022;-76
2023/04/08 00:35:07;;;;;;;12.13;8.82;;;8.70;99.60;;;;;;5043349;28;20025;-76
2023/04/08 00:37:33;;;;;;;10.75;7.80;;;8.70;99.60;;;;;;5042749;28;20021;-76
2023/04/08 00:39:59;;;;;;;10.55;6.90;;;8.70;99.60;;;;;;5038145;28;20013;-77
2023/04/08 00:42:25;;;;;;;12.95;8.25;;;8.60;99.60;;;;;;5035293;28;20032;-76
2023/04/08 00:44:51;;;;;;;11.85;8.13;;;8.60;99.60;;;;;;5035485;28;20084;-78
2023/04/08 00:47:17;;;;;;;11.38;8.15;;;8.60;99.60;;;;;;5042387;28;20033;-77
2023/04/08 00:49:43;;;;;;;12.35;8.60;;;8.60;99.50;;;;;;5033971;28;20663;-76
2023/04/08 00:52:09;;;;;;;13.98;9.27;;;8.60;99.50;;;;;;5037427;28;20025;-76
2023/04/08 00:54:36;;;;;;;12.38;9.05;;;8.60;99.50;;;;;;5040683;28;20040;-76
2023/04/08 00:57:02;;;;;;;13.00;8.77;;;8.60;99.50;;;;;;5037447;28;20472;-75
2023/04/08 00:59:29;;;;;;;13.48;8.98;;;8.50;99.60;;;;;;5041809;28;20028;-77
2023/04/08 01:02:05;;;;;;;15.45;10.48;;;8.50;99.60;;;;;;5036806;28;20026;-77
2023/04/08 01:04:55;;;;;;;13.55;9.38;;;8.50;99.70;;;;;;5034809;28;20025;-77
2023/04/08 01:07:32;;;;;;;14.00;9.18;;;8.50;99.70;;;;;;5042340;28;20115;-76
2023/04/08 01:10:20;;;;;;;12.80;8.57;;;8.40;99.70;;;;;;5037970;28;20028;-76
2023/04/08 01:12:53;;;;;;;11.48;7.78;;;8.40;99.80;;;;;;5034353;28;20083;-76
2023/04/08 01:15:19;;;;;;;14.50;10.23;;;8.40;99.90;;;;;;5041823;28;20484;-76
2023/04/08 01:17:46;;;;;;;17.55;9.57;;;8.40;99.90;;;;;;5035796;28;20034;-76
2023/04/08 01:20:13;;;;;;;19.33;8.80;;;8.40;99.90;;;;;;5040178;28;20041;-77
2023/04/08 01:23:17;;;;;;;17.70;10.20;;;8.40;99.90;;;;;;5039041;28;20025;-76
2023/04/08 01:26:00;;;;;;;19.48;10.05;;;8.30;99.90;;;;;;5039663;28;20037;-79
2023/04/08 01:28:28;;;;;;;14.45;10.30;;;8.40;99.90;;;;;;5039651;28;20442;-76
2023/04/08 01:30:58;;;;;;;14.63;9.85;;;8.40;99.90;;;;;;5039709;28;20049;-77
2023/04/08 01:33:26;;;;;;;13.20;9.52;;;8.40;99.90;;;;;;5042242;28;20099;-75
2023/04/08 01:35:54;;;;;;;14.82;10.10;;;8.30;99.90;;;;;;5041862;28;20024;-75
2023/04/08 01:38:24;;;;;;;14.20;10.07;;;8.30;99.90;;;;;;5040138;28;20083;-76
2023/04/08 01:40:51;;;;;;;13.30;9.80;;;8.30;99.90;;;;;;5038533;28;20021;-76
2023/04/08 01:43:18;;;;;;;11.88;8.82;;;8.30;99.90;;;;;;5035300;28;20024;-75
2023/04/08 01:45:45;;;;;;;12.48;8.20;;;8.30;99.80;;;;;;5038862;28;20041;-75
2023/04/08 01:48:13;;;;;;;11.15;8.75;;;8.30;99.70;;;;;;5034746;28;20033;-76
2023/04/08 01:50:43;;;;;;;10.90;8.10;;;8.20;99.90;;;;;;5036840;28;20051;-75
2023/04/08 01:53:10;;;;;;;10.13;7.95;;;8.20;99.60;;;;;;5041327;28;20113;-75
2023/04/08 01:55:37;;;;;;;11.40;8.35;;;8.20;99.60;;;;;;5043713;28;20483;-75
2023/04/08 01:58:05;;;;;;;10.27;7.45;;;8.20;99.60;;;;;;5036762;28;20159;-74
2023/04/08 02:00:34;;;;;;;10.30;7.65;;;8.20;99.50;;;;;;5039473;28;20021;-74
2023/04/08 02:03:01;;;;;;;10.68;8.52;;;8.10;99.40;;;;;;5030395;28;20021;-75
2023/04/08 02:05:27;;;;;;;10.73;8.32;;;8.10;99.40;;;;;;5040767;28;20377;-75
2023/04/08 02:07:53;;;;;;;10.25;7.85;;;8.10;99.30;;;;;;5034919;28;20051;-76
2023/04/08 02:10:19;;;;;;;8.65;6.40;;;8.10;99.60;;;;;;5040705;28;20107;-75
2023/04/08 02:12:45;;;;;;;8.50;6.30;;;8.00;99.40;;;;;;5037662;28;20029;-76
2023/04/08 02:15:12;;;;;;;9.95;6.47;;;8.00;99.30;;;;;;5034819;28;20025;-75
2023/04/08 02:17:49;;;;;;;8.35;6.13;;;8.00;99.30;;;;;;5036253;28;20053;-76
2023/04/08 02:20:20;;;;;;;7.35;5.53;;;7.90;99.30;;;;;;5039034;28;20049;-76
2023/04/08 02:23:09;;;;;;;8.05;6.07;;;7.90;99.30;;;;;;5035068;28;20025;-76
2023/04/08 02:25:38;;;;;;;9.32;7.03;;;7.90;99.60;;;;;;5042297;28;20033;-76
2023/04/08 02:28:08;;;;;;;10.07;6.43;;;7.80;99.90;;;;;;5036197;28;21221;-75
2023/04/08 02:30:35;;;;;;;10.65;8.02;;;7.80;99.90;;;;;;5036092;28;20017;-77
2023/04/08 02:33:04;;;;;;;11.18;8.43;;;7.70;99.90;;;;;;5038450;28;20025;-76
2023/04/08 02:35:31;;;;;;;11.13;8.35;;;7.70;99.90;;;;;;5035205;28;20028;-75
2023/04/08 02:37:56;;;;;;;11.57;8.15;;;7.70;99.90;;;;;;5034888;28;20022;-78
2023/04/08 02:40:27;;;;;;;10.02;7.80;;;7.60;99.90;;;;;;5040870;28;20023;-77
2023/04/08 02:42:54;;;;;;;12.05;8.75;;;7.60;99.80;;;;;;5035756;28;20032;-77
2023/04/08 02:45:20;;;;;;;10.30;8.00;;;7.60;99.60;;;;;;5038299;28;20447;-77
2023/04/08 02:47:48;;;;;;;11.35;8.13;;;7.60;99.50;;;;;;5034619;28;20036;-77
2023/04/08 02:50:13;;;;;;;12.32;9.13;;;7.50;99.30;;;;;;5036158;28;20074;-77
2023/04/08 02:52:39;;;;;;;11.75;8.68;;;7.50;99.30;;;;;;5035428;28;20021;-76
2023/04/08 02:55:08;;;;;;;11.95;9.30;;;7.50;99.30;;;;;;5038227;28;20064;-76
2023/04/08 02:57:35;;;;;;;9.43;7.53;;;7.40;99.20;;;;;;5038715;28;20031;-76
2023/04/08 03:00:03;;;;;;;10.32;7.78;;;7.40;99.20;;;;;;5035664;28;20023;-75
2023/04/08 03:02:28;;;;;;;9.55;7.88;;;7.40;99.10;;;;;;5036683;28;20039;-76
2023/04/08 03:04:55;;;;;;;9.98;7.80;;;7.30;99.00;;;;;;5036064;28;20025;-76
2023/04/08 03:07:20;;;;;;;11.57;7.60;;;7.30;98.90;;;;;;5038317;28;20049;-75
2023/04/08 03:09:46;;;;;;;8.90;6.68;;;7.20;98.80;;;;;;5039926;28;20079;-74
2023/04/08 03:12:12;;;;;;;11.27;8.23;;;7.20;99.10;;;;;;5041920;28;20044;-76
2023/04/08 03:14:37;;;;;;;10.95;8.98;;;7.10;98.80;;;;;;5036655;28;20101;-76
2023/04/08 03:17:03;;;;;;;10.73;8.05;;;7.10;98.80;;;;;;5034501;28;20108;-76
2023/04/08 03:19:28;;;;;;;12.10;8.55;;;7.10;98.80;;;;;;5036494;28;20037;-77
2023/04/08 03:22:17;;;;;;;9.25;7.32;;;7.00;98.80;;;;;;5041521;28;20041;-78
2023/04/08 03:24:43;;;;;;;10.40;7.82;;;6.90;98.70;;;;;;5036239;28;20025;-76
2023/04/08 03:27:09;;;;;;;10.40;7.78;;;6.90;98.60;;;;;;5039672;28;20038;-75
2023/04/08 03:29:35;;;;;;;10.93;7.95;;;6.80;98.60;;;;;;5039223;28;20808;-76
2023/04/08 03:32:03;;;;;;;10.80;7.43;;;6.80;98.70;;;;;;5036407;28;20090;-76
2023/04/08 03:34:29;;;;;;;10.30;7.85;;;6.80;98.60;;;;;;5037247;28;20021;-75
2023/04/08 03:36:54;;;;;;;11.45;8.63;;;6.80;98.60;;;;;;5035715;28;20056;-76
2023/04/08 03:39:20;;;;;;;22.73;15.75;;;6.80;98.60;;;;;;5039517;28;20025;-75
2023/04/08 03:41:52;;;;;;;20.52;15.05;;;6.80;98.80;;;;;;5036918;28;20490;-75
2023/04/08 03:44:17;;;;;;;18.75;15.18;;;6.70;99.00;;;;;;5036496;28;20511;-76
2023/04/08 03:46:43;;;;;;;19.13;14.38;;;6.70;99.10;;;;;;5032400;28;20152;-75
2023/04/08 03:49:09;;;;;;;22.58;15.90;;;6.70;99.30;;;;;;5040739;28;20017;-76
2023/04/08 03:51:34;;;;;;;22.02;17.58;;;6.70;99.30;;;;;;5036010;28;20083;-75
2023/04/08 03:54:00;;;;;;;25.08;15.27;;;6.70;99.30;;;;;;5034281;28;20017;-76
2023/04/08 03:56:25;;;;;;;26.50;19.85;;;6.70;99.30;;;;;;5036176;28;20419;-75
2023/04/08 03:58:51;;;;;;;21.02;16.67;;;6.70;99.30;;;;;;5036372;28;20615;-76
2023/04/08 04:01:18;;;;;;;23.05;17.60;;;6.80;99.30;;;;;;5033714;28;20028;-74
2023/04/08 04:03:44;;;;;;;23.67;17.60;;;6.80;99.40;;;;;;5039523;28;20067;-75
2023/04/08 04:06:09;;;;;;;19.55;15.15;;;6.70;99.40;;;;;;5032937;28;20029;-76
2023/04/08 04:08:35;;;;;;;19.48;14.68;;;6.70;99.40;;;;;;5037281;28;20030;-76
2023/04/08 04:11:01;;;;;;;20.52;15.27;;;6.70;99.20;;;;;;5039466;28;20050;-75
2023/04/08 04:13:26;;;;;;;22.90;16.83;;;6.70;99.10;;;;;;5041283;28;20089;-75
2023/04/08 04:15:52;;;;;;;22.83;17.73;;;6.70;99.10;;;;;;5041630;28;20021;-76
2023/04/08 04:18:18;;;;;;;23.98;17.35;;;6.70;99.00;;;;;;5035319;28;20025;-76
2023/04/08 04:20:44;;;;;;;26.25;18.90;;;6.70;99.00;;;;;;5029130;28;20540;-74
2023/04/08 04:23:09;;;;;;;26.13;18.70;;;6.70;99.00;;;;;;5038322;28;20080;-75
2023/04/08 04:25:35;;;;;;;26.17;19.63;;;6.70;99.10;;;;;;5038547;28;20027;-75
2023/04/08 04:28:01;;;;;;;27.85;20.90;;;6.70;99.10;;;;;;5036889;28;20143;-76
2023/04/08 04:30:27;;;;;;;24.27;18.88;;;6.70;99.10;;;;;;5039485;28;20136;-75
2023/04/08 04:32:53;;;;;;;27.85;21.55;;;6.70;99.10;;;;;;5039033;28;20953;-75
2023/04/08 04:35:19;;;;;;;24.77;18.33;;;6.70;99.10;;;;;;5031897;28;20030;-75
2023/04/08 04:37:44;;;;;;;26.88;20.60;;;6.70;99.10;;;;;;5039862;28;20048;-75
2023/04/08 04:40:10;;;;;;;28.58;22.00;;;6.70;99.20;;;;;;5037772;28;20148;-76
2023/04/08 04:42:36;;;;;;;26.90;18.92;;;6.70;99.20;;;;;;5040092;28;20025;-76
2023/04/08 04:45:02;;;;;;;25.60;18.85;;;6.70;99.20;;;;;;5040212;28;20398;-76
2023/04/08 04:48:19;;;;;;;28.60;20.83;;;6.70;99.10;;;;;;5034515;28;20071;-75
2023/04/08 04:50:53;;;;;;;23.73;19.13;;;6.60;99.10;;;;;;5034480;28;20053;-74
2023/04/08 04:53:18;;;;;;;27.27;19.13;;;6.60;99.40;;;;;;5036637;28;20029;-76
2023/04/08 04:55:44;;;;;;;25.67;19.45;;;6.50;99.10;;;;;;5040526;28;20103;-77
2023/04/08 04:58:09;;;;;;;25.48;18.77;;;6.50;99.10;;;;;;5039354;28;20025;-77
2023/04/08 05:00:35;;;;;;;28.05;20.73;;;6.50;99.00;;;;;;5035869;28;20220;-75
2023/04/08 05:03:01;;;;;;;28.55;20.15;;;6.50;99.00;;;;;;5043170;28;20029;-74
2023/04/08 05:05:26;;;;;;;26.55;21.02;;;6.50;98.90;;;;;;5035127;28;20164;-75
2023/04/08 05:07:53;;;;;;;26.58;20.50;;;6.50;98.90;;;;;;5039337;28;20411;-75
2023/04/08 05:10:19;;;;;;;34.10;21.35;;;6.50;98.80;;;;;;5044850;28;20020;-75
2023/04/08 05:12:45;;;;;;;28.65;20.13;;;6.50;98.80;;;;;;5039419;28;20037;-76
2023/04/08 05:15:10;;;;;;;23.73;18.58;;;6.50;98.70;;;;;;5059760;28;20043;-76
2023/04/08 05:17:36;;;;;;;28.40;20.27;;;6.50;98.80;;;;;;5043672;28;20028;-75
2023/04/08 05:20:02;;;;;;;26.63;20.23;;;6.50;98.80;;;;;;5041206;28;20088;-75
2023/04/08 05:22:27;;;;;;;28.75;20.77;;;6.50;98.80;;;;;;5041631;28;20052;-75
2023/04/08 05:24:54;;;;;;;28.08;19.20;;;6.50;98.70;;;;;;5033351;28;20329;-76
2023/04/08 05:27:20;;;;;;;27.13;20.48;;;6.50;98.70;;;;;;5039657;28;20041;-76
2023/04/08 05:29:47;;;;;;;26.63;19.98;;;6.50;98.70;;;;;;5041739;28;20036;-76
2023/04/08 05:32:15;;;;;;;28.20;20.30;;;6.60;98.70;;;;;;5043542;28;20112;-74
2023/04/08 05:34:41;;;;;;;24.80;18.90;;;6.60;98.60;;;;;;5039423;28;20037;-76
2023/04/08 05:37:07;;;;;;;25.00;19.52;;;6.60;98.60;;;;;;5037193;28;20025;-76
2023/04/08 05:39:33;;;;;;;26.70;20.08;;;6.60;98.60;;;;;;5037472;28;20472;-76
2023/04/08 05:41:59;;;;;;;26.63;20.23;;;6.70;98.70;;;;;;5040887;28;20028;-75
2023/04/08 05:44:29;;;;;;;29.77;19.60;;;6.70;98.70;;;;;;5041079;28;20028;-74
2023/04/08 05:46:56;;;;;;;25.75;19.48;;;6.80;98.70;;;;;;5033168;28;20029;-74
2023/04/08 05:49:22;;;;;;;27.30;20.08;;;6.80;98.70;;;;;;5046414;28;20029;-75
2023/04/08 05:51:47;;;;;;;24.08;18.42;;;6.80;98.70;;;;;;5040958;28;20044;-75
2023/04/08 05:54:13;;;;;;;25.73;18.73;;;6.80;98.70;;;;;;5040549;28;20017;-75
2023/04/08 05:56:38;;;;;;;25.27;19.02;;;6.80;98.70;;;;;;5032524;28;20033;-74
2023/04/08 05:59:04;;;;;;;24.48;18.30;;;6.90;98.80;;;;;;5039835;28;20025;-74
2023/04/08 06:01:30;;;;;;;23.98;18.33;;;6.90;99.00;;;;;;5037329;28;20021;-75
2023/04/08 06:03:55;;;;;;;24.70;17.55;;;6.90;98.80;;;;;;5041092;28;20036;-75
2023/04/08 06:06:22;;;;;;;24.65;18.58;;;7.00;98.90;;;;;;5033964;28;20114;-76
2023/04/08 06:08:48;;;;;;;25.98;18.92;;;7.10;99.00;;;;;;5036149;28;20025;-76
2023/04/08 06:11:13;;;;;;;24.70;18.15;;;7.20;99.00;;;;;;5036620;28;20028;-75
2023/04/08 06:13:39;;;;;;;24.83;19.70;;;7.30;99.10;;;;;;5037263;28;20607;-76
2023/04/08 06:16:12;;;;;;;30.65;20.45;;;7.30;99.40;;;;;;5032576;28;20112;-76
2023/04/08 06:18:38;;;;;;;27.95;18.75;;;7.40;99.20;;;;;;5037997;28;20052;-76
2023/04/08 06:21:05;;;;;;;23.73;18.60;;;7.50;99.30;;;;;;5039483;28;20024;-75
2023/04/08 06:23:30;;;;;;;24.55;17.70;;;7.60;99.20;;;;;;5037361;28;20503;-76
2023/04/08 06:25:56;;;;;;;20.42;16.60;;;7.70;99.00;;;;;;5039282;28;20033;-76
2023/04/08 06:28:22;;;;;;;17.80;14.15;;;7.70;98.70;;;;;;5039190;28;20036;-76
2023/04/08 06:30:47;;;;;;;19.00;14.77;;;7.80;98.50;;;;;;5032331;28;20033;-76
2023/04/08 06:33:14;;;;;;;20.90;16.40;;;7.80;98.50;;;;;;5040627;28;20080;-77
2023/04/08 06:35:40;;;;;;;23.17;16.63;;;8.00;98.70;;;;;;5030939;28;20049;-76
2023/04/08 06:38:05;;;;;;;19.35;15.93;;;8.10;98.50;;;;;;5035650;28;20032;-75
2023/04/08 06:40:31;;;;;;;18.80;14.40;;;8.10;98.10;;;;;;5033047;28;20810;-76
2023/04/08 06:42:57;;;;;;;19.58;10.98;;;8.20;97.90;;;;;;5033662;28;20028;-80
2023/04/08 06:45:22;;;;;;;23.10;14.95;;;8.30;98.10;;;;;;5037935;28;20021;-79
2023/04/08 06:47:48;;;;;;;18.90;12.82;;;8.80;99.30;;;;;;5034873;28;20041;-78
2023/04/08 06:50:13;;;;;;;18.60;12.20;;;9.30;99.40;;;;;;5035574;28;20400;-77
2023/04/08 06:52:39;;;;;;;14.38;10.43;;;9.80;98.50;;;;;;5038715;28;20029;-79
2023/04/08 06:55:05;;;;;;;16.45;11.18;;;10.10;98.00;;;;;;5035493;28;20112;-77
2023/04/08 06:57:31;;;;;;;13.40;9.63;;;10.40;97.50;;;;;;5040950;28;20064;-79
2023/04/08 06:59:56;;;;;;;17.02;11.02;;;10.70;97.00;;;;;;5042299;28;20548;-78
2023/04/08 07:02:22;;;;;;;13.38;9.38;;;10.90;97.00;;;;;;5038249;28;20025;-79
2023/04/08 07:04:49;;;;;;;12.63;8.65;;;11.40;97.40;;;;;;5032076;28;20396;-78
2023/04/08 07:07:15;;;;;;;11.00;7.72;;;11.80;97.20;;;;;;5034093;28;20863;-78
2023/04/08 07:09:42;;;;;;;11.57;7.32;;;12.30;96.30;;;;;;5035631;28;20028;-78
2023/04/08 07:12:07;;;;;;;12.18;7.53;;;12.70;95.80;;;;;;5034157;28;20025;-78
2023/04/08 07:14:33;;;;;;;12.48;8.43;;;13.10;95.40;;;;;;5036408;28;20021;-77
2023/04/08 07:16:59;;;;;;;11.00;7.40;;;13.30;94.70;;;;;;5039600;28;20135;-78
2023/04/08 07:19:25;;;;;;;12.88;7.20;;;13.50;94.10;;;;;;5037025;28;20492;-78
2023/04/08 07:21:51;;;;;;;8.65;6.72;;;13.50;93.60;;;;;;5039999;28;20027;-77
2023/04/08 07:24:17;;;;;;;11.32;6.45;;;13.50;93.60;;;;;;5034711;28;20400;-78
2023/04/08 07:26:43;;;;;;;10.57;7.20;;;13.60;93.40;;;;;;5034535;28;20037;-78
2023/04/08 07:29:09;;;;;;;10.85;6.72;;;13.80;93.00;;;;;;5035525;28;20037;-78
2023/04/08 07:31:34;;;;;;;10.98;6.25;;;13.80;92.60;;;;;;5040671;28;20017;-77
2023/04/08 07:34:00;;;;;;;9.45;6.45;;;13.80;92.20;;;;;;5033862;28;20223;-78
2023/04/08 07:36:27;;;;;;;8.88;6.28;;;13.80;92.10;;;;;;5037119;28;20016;-77
2023/04/08 07:38:53;;;;;;;9.18;5.72;;;13.90;92.00;;;;;;5030470;28;20021;-78
2023/04/08 07:41:20;;;;;;;7.82;5.97;;;14.00;91.70;;;;;;5036126;28;20026;-78
2023/04/08 07:43:46;;;;;;;7.07;4.85;;;14.10;91.50;;;;;;5034280;28;20025;-78
2023/04/08 07:46:12;;;;;;;7.00;5.35;;;14.10;91.50;;;;;;5039564;28;20028;-76
2023/04/08 07:48:39;;;;;;;9.43;5.78;;;13.90;91.60;;;;;;5040208;28;20049;-78
2023/04/08 07:51:06;;;;;;;6.80;4.88;;;13.60;91.70;;;;;;5037635;28;20061;-77
2023/04/08 07:53:33;;;;;;;9.15;5.55;;;13.50;92.10;;;;;;5039971;28;20500;-76
2023/04/08 07:55:59;;;;;;;7.63;5.20;;;13.50;92.20;;;;;;5036409;28;20029;-77
2023/04/08 07:58:25;;;;;;;10.10;6.57;;;13.70;91.90;;;;;;5031586;28;20074;-79
2023/04/08 08:00:56;;;;;;;9.02;6.45;;;13.90;91.40;;;;;;5038669;28;20033;-78
2023/04/08 08:03:21;;;;;;;10.23;5.90;;;14.10;90.90;;;;;;5035077;28;20409;-78
2023/04/08 08:05:47;;;;;;;7.78;5.75;;;14.30;90.80;;;;;;5032691;28;20071;-79
2023/04/08 08:08:13;;;;;;;7.95;5.63;;;14.40;90.70;;;;;;5032283;28;20021;-76
2023/04/08 08:10:39;;;;;;;8.55;6.47;;;14.50;90.60;;;;;;5037030;28;20021;-78
2023/04/08 08:13:06;;;;;;;8.55;5.75;;;14.60;90.40;;;;;;5043013;28;20396;-79
2023/04/08 08:15:33;;;;;;;7.95;5.45;;;14.70;90.40;;;;;;5040809;28;20021;-76
2023/04/08 08:17:59;;;;;;;8.65;6.38;;;14.80;90.40;;;;;;5043892;28;20403;-79
2023/04/08 08:20:25;;;;;;;8.95;6.40;;;14.80;90.40;;;;;;5037473;28;20061;-78
2023/04/08 08:22:50;;;;;;;8.98;5.82;;;14.80;90.20;;;;;;5039696;28;20816;-78
2023/04/08 08:25:16;;;;;;;9.90;6.90;;;15.00;90.40;;;;;;5038911;28;20025;-78
2023/04/08 08:27:46;;;;;;;9.15;6.07;;;15.20;89.70;;;;;;5046408;28;20037;-77
2023/04/08 08:30:12;;;;;;;9.13;5.90;;;15.20;89.30;;;;;;5042481;28;20033;-78
2023/04/08 08:32:38;;;;;;;8.32;5.55;;;15.30;89.40;;;;;;5042495;28;20032;-77
2023/04/08 08:35:04;;;;;;;6.97;5.03;;;15.40;89.50;;;;;;5036556;28;20163;-78
2023/04/08 08:37:29;;;;;;;8.85;5.38;;;15.50;89.70;;;;;;5039003;28;20021;-77
2023/04/08 08:39:55;;;;;;;8.30;5.25;;;15.60;89.50;;;;;;5033980;28;20036;-76
2023/04/08 08:42:24;;;;;;;6.93;4.68;;;15.80;89.60;;;;;;5040532;28;20036;-77
2023/04/08 08:44:50;;;;;;;6.57;4.30;;;15.70;89.50;;;;;;5038183;28;20078;-78
2023/04/08 08:47:17;;;;;;;6.85;4.60;;;15.70;90.10;;;;;;5036916;28;20038;-77
2023/04/08 08:49:44;;;;;;;8.80;5.90;;;15.60;90.10;;;;;;5033132;28;20061;-77
2023/04/08 08:52:10;;;;;;;7.53;4.95;;;15.60;88.50;;;;;;5040309;28;20078;-76
2023/04/08 08:54:36;;;;;;;8.43;5.93;;;15.50;88.30;;;;;;5042161;28;20091;-76
2023/04/08 08:57:02;;;;;;;8.00;3.42;;;15.40;88.30;;;;;;5041042;28;20490;-77
2023/04/08 08:59:30;;;;;;;14.68;5.00;;;15.50;90.50;;;;;;5040260;28;20033;-76
2023/04/08 09:01:58;;;;;;;23.10;6.30;;;15.80;92.20;;;;;;5037218;28;20084;-76
2023/04/08 09:04:23;;;;;;;28.98;5.70;;;16.20;92.20;;;;;;5034978;28;20057;-78
2023/04/08 09:07:08;;;;;;;27.00;6.13;;;16.50;92.00;;;;;;5033979;28;20064;-76
2023/04/08 09:09:50;;;;;;;15.45;6.15;;;16.80;91.90;;;;;;5045800;28;20039;-78
2023/04/08 09:12:16;;;;;;;10.30;4.90;;;16.90;91.60;;;;;;5043273;28;20804;-75
2023/04/08 09:14:42;;;;;;;10.43;5.15;;;16.90;91.30;;;;;;5038818;28;20082;-76
2023/04/08 09:17:08;;;;;;;8.82;4.72;;;17.00;91.00;;;;;;5033577;28;20025;-77
2023/04/08 09:19:34;;;;;;;9.40;4.25;;;17.00;90.90;;;;;;5040655;28;20065;-76
2023/04/08 09:22:08;;;;;;;7.90;5.25;;;16.90;91.10;;;;;;5037481;28;20027;-77
2023/04/08 09:24:35;;;;;;;10.35;4.30;;;16.90;90.30;;;;;;5059611;28;20576;-77
2023/04/08 09:27:01;;;;;;;6.75;4.10;;;16.90;90.70;;;;;;5042332;28;20095;-76
2023/04/08 09:29:27;;;;;;;11.20;4.68;;;16.90;90.60;;;;;;5041868;28;20025;-77
2023/04/08 09:31:57;;;;;;;8.98;4.53;;;17.00;90.90;;;;;;5037158;28;20029;-76
2023/04/08 09:34:25;;;;;;;12.23;5.35;;;17.00;90.60;;;;;;5038848;28;20434;-77
2023/04/08 09:36:52;;;;;;;7.93;4.00;;;17.00;90.90;;;;;;5034222;28;20025;-76
2023/04/08 09:39:19;;;;;;;7.07;4.03;;;17.00;90.90;;;;;;5045413;28;20026;-75
2023/04/08 09:41:49;;;;;;;6.65;3.28;;;17.10;90.50;;;;;;5039548;28;20053;-77
2023/04/08 09:44:17;;;;;;;8.57;3.60;;;17.30;91.10;;;;;;5032466;28;20022;-77
2023/04/08 09:46:49;;;;;;;7.45;3.42;;;17.50;91.10;;;;;;5041517;28;20408;-77
2023/04/08 09:49:24;;;;;;;7.43;4.10;;;17.60;91.10;;;;;;5042948;28;20036;-76
2023/04/08 09:52:11;;;;;;;7.05;4.28;;;17.70;91.40;;;;;;5031285;28;20030;-77
2023/04/08 09:54:54;;;;;;;7.65;4.32;;;17.80;91.10;;;;;;5037118;28;20040;-76
2023/04/08 09:58:01;;;;;;;7.20;3.78;;;17.90;91.70;;;;;;5044682;28;20125;-77
2023/04/08 10:00:37;;;;;;;8.18;3.53;;;17.90;92.40;;;;;;5020387;28;20021;-76
2023/04/08 10:03:25;;;;;;;7.15;3.25;;;18.00;92.50;;;;;;5033542;28;20502;-77
2023/04/08 10:05:55;;;;;;;8.85;4.05;;;17.90;92.80;;;;;;5039985;28;20128;-77
2023/04/08 10:08:23;;;;;;;7.03;3.92;;;17.90;92.80;;;;;;5038157;28;20043;-76
2023/04/08 10:10:50;;;;;;;7.18;3.80;;;17.90;93.10;;;;;;5039213;28;20021;-77
2023/04/08 10:13:17;;;;;;;5.65;3.80;;;17.80;93.00;;;;;;5039373;28;20025;-76
2023/04/08 10:15:44;;;;;;;5.07;3.30;;;17.90;93.20;;;;;;5041005;28;20029;-78
2023/04/08 10:18:10;;;;;;;6.13;4.15;;;18.00;93.10;;;;;;5036416;28;20033;-76
2023/04/08 10:20:36;;;;;;;6.63;3.58;;;18.20;92.40;;;;;;5040322;28;20555;-76
2023/04/08 10:23:04;;;;;;;6.97;3.67;;;18.30;92.40;;;;;;5040430;28;20025;-76
2023/04/08 10:25:33;;;;;;;5.05;2.95;;;18.50;92.40;;;;;;5039532;28;20572;-76
2023/04/08 10:28:00;;;;;;;4.33;2.93;;;18.70;93.00;;;;;;5038572;28;20114;-76
2023/04/08 10:30:30;;;;;;;5.90;2.60;;;19.00;92.90;;;;;;5037673;28;20033;-77
2023/04/08 10:33:00;;;;;;;6.70;2.97;;;19.10;92.80;;;;;;5037014;28;20028;-78
2023/04/08 10:35:30;;;;;;;4.30;2.58;;;19.20;92.90;;;;;;5032928;28;20165;-77
2023/04/08 10:37:56;;;;;;;5.28;3.17;;;19.30;93.00;;;;;;5039696;28;20037;-77
2023/04/08 10:40:22;;;;;;;6.72;3.45;;;19.30;93.10;;;;;;5034202;28;20029;-77
2023/04/08 10:42:54;;;;;;;4.55;2.50;;;19.20;93.10;;;;;;5039092;28;20029;-78
2023/04/08 10:45:20;;;;;;;5.05;2.85;;;19.10;93.80;;;;;;5034757;28;20110;-80
2023/04/08 10:47:45;;;;;;;5.97;2.80;;;19.00;94.10;;;;;;5037954;28;20670;-77
2023/04/08 10:50:16;;;;;;;6.38;2.80;;;18.90;94.40;;;;;;5036818;28;20029;-78
2023/04/08 10:52:52;;;;;;;6.63;3.00;;;18.70;94.50;;;;;;5033935;28;20040;-79
2023/04/08 10:55:26;;;;;;;5.47;2.78;;;18.50;94.70;;;;;;5035882;28;20034;-78
2023/04/08 10:57:52;;;;;;;5.43;3.08;;;18.40;94.90;;;;;;5030260;28;20024;-76
2023/04/08 11:00:30;;;;;;;7.03;3.78;;;18.30;95.00;;;;;;5040421;28;20032;-76
2023/04/08 11:03:00;;;;;;;5.65;3.08;;;18.30;95.00;;;;;;5041090;28;20021;-75
2023/04/08 11:05:46;;;;;;;10.52;3.10;;;18.30;95.00;;;;;;5043412;28;20531;-78
2023/04/08 11:08:12;;;;;;;6.35;2.90;;;18.30;94.70;;;;;;5041323;28;20072;-79
2023/04/08 11:10:38;;;;;;;5.20;3.17;;;18.30;94.60;;;;;;5042773;28;20526;-78
2023/04/08 11:13:07;;;;;;;4.03;2.35;;;18.40;94.40;;;;;;5042989;28;20028;-77
2023/04/08 11:15:35;;;;;;;5.90;2.73;;;18.60;94.20;;;;;;5035809;28;20546;-78
2023/04/08 11:18:02;;;;;;;5.57;3.50;;;18.70;94.10;;;;;;5034926;28;20464;-77
2023/04/08 11:20:30;;;;;;;5.75;3.10;;;18.80;93.50;;;;;;5034729;28;20060;-78
2023/04/08 11:22:56;;;;;;;7.82;2.88;;;19.00;93.20;;;;;;5033858;28;20044;-77
2023/04/08 11:25:22;;;;;;;6.32;3.42;;;19.10;93.00;;;;;;5041343;28;20021;-78
2023/04/08 11:27:48;;;;;;;4.47;2.30;;;19.10;92.80;;;;;;5037133;28;20033;-78
2023/04/08 11:30:14;;;;;;;6.68;3.00;;;19.10;93.10;;;;;;5040435;28;20379;-77
2023/04/08 11:32:40;;;;;;;4.65;2.53;;;19.10;93.10;;;;;;5034601;28;20096;-79
2023/04/08 11:35:06;;;;;;;6.60;2.88;;;19.10;92.90;;;;;;5035124;28;20033;-78
2023/04/08 11:37:41;;;;;;;5.18;2.80;;;19.00;93.10;;;;;;5032386;28;20391;-77
2023/04/08 11:40:10;;;;;;;6.53;4.65;;;18.90;93.30;;;;;;5046924;28;20036;-74
2023/04/08 11:42:36;;;;;;;6.72;4.53;;;18.80;91.20;;;;;;5030821;28;20067;-75
2023/04/08 11:45:12;;;;;;;7.25;4.55;;;18.60;90.20;;;;;;5049157;28;20025;-74
2023/04/08 11:47:39;;;;;;;7.05;3.90;;;18.40;90.90;;;;;;5041283;28;20491;-74
2023/04/08 11:50:05;;;;;;;7.85;5.07;;;18.30;90.60;;;;;;5046488;28;20029;-74
2023/04/08 11:53:01;;;;;;;8.13;2.85;;;18.20;90.10;;;;;;5045206;28;20024;-75
2023/04/08 11:55:42;;;;;;;6.70;3.75;;;18.00;91.10;;;;;;5038091;28;20037;-77
2023/04/08 11:58:07;;;;;;;7.50;4.28;;;18.00;90.60;;;;;;5040043;28;20128;-73
2023/04/08 12:00:36;;;;;;;8.50;5.85;;;17.80;89.00;;;;;;5042257;28;20025;-75
2023/04/08 12:03:04;;;;;;;7.80;5.53;;;17.70;81.00;;;;;;5039189;28;20435;-74
2023/04/08 12:05:30;;;;;;;7.45;4.13;;;17.60;82.50;;;;;;5035784;28;20075;-74
2023/04/08 12:07:56;;;;;;;8.75;6.20;;;17.60;88.40;;;;;;5029305;28;20034;-74
2023/04/08 12:10:24;;;;;;;4.63;2.42;;;17.60;81.20;;;;;;5044445;28;20029;-74
2023/04/08 12:12:52;;;;;;;5.63;2.65;;;17.70;90.10;;;;;;5027880;28;20543;-75
2023/04/08 12:15:17;;;;;;;7.38;4.47;;;17.60;89.60;;;;;;5038055;28;20025;-74
2023/04/08 12:17:44;;;;;;;5.35;2.58;;;17.60;85.00;;;;;;5045361;28;20032;-74
2023/04/08 12:20:10;;;;;;;7.88;4.07;;;17.70;92.40;;;;;;5046684;28;20758;-73
2023/04/08 12:22:37;;;;;;;6.95;4.65;;;17.70;91.30;;;;;;5027629;28;20025;-75
2023/04/08 12:25:03;;;;;;;8.20;5.93;;;17.70;80.40;;;;;;5046595;28;20025;-73
2023/04/08 12:27:32;;;;;;;4.10;2.33;;;17.70;80.60;;;;;;5034735;28;20436;-74
2023/04/08 12:29:58;;;;;;;11.07;6.15;;;17.80;91.10;;;;;;5040282;28;20025;-73
2023/04/08 12:32:24;;;;;;;6.25;3.05;;;18.00;81.90;;;;;;5037641;28;20074;-74
2023/04/08 12:34:50;;;;;;;7.43;3.80;;;18.30;88.30;;;;;;5033852;28;20022;-75
2023/04/08 12:37:16;;;;;;;8.45;6.30;;;18.60;89.70;;;;;;5044147;28;20112;-74
2023/04/08 12:39:41;;;;;;;9.82;6.72;;;18.90;69.30;;;;;;5030778;28;20460;-74
2023/04/08 12:42:07;;;;;;;7.50;3.15;;;19.00;67.70;;;;;;5039799;28;20036;-74
2023/04/08 12:44:33;;;;;;;6.38;3.42;;;19.10;78.80;;;;;;5032545;28;20031;-74
2023/04/08 12:46:58;;;;;;;6.90;2.67;;;19.20;84.00;;;;;;5037230;28;20032;-74